createdAt,value
2023-04-02T00:01:44.224Z,95974.44
2023-04-02T00:04:09.230Z,95971.88
2023-04-02T00:06:40.651Z,95975.88
2023-04-02T00:08:45.569Z,95981.16
2023-04-02T00:10:52.521Z,95982.69
2023-04-02T00:13:05.301Z,95985.63
2023-04-02T00:15:16.102Z,95991.69
2023-04-02T00:17:26.301Z,95988.75
2023-04-02T00:19:36.924Z,95985.03
2023-04-02T00:21:42.385Z,95989.72
2023-04-02T00:23:47.912Z,95992.38
2023-04-02T00:25:52.872Z,95986.03
2023-04-02T00:27:58.877Z,95994.72
2023-04-02T00:30:04.471Z,95991.81
2023-04-02T00:32:09.317Z,95996.50
2023-04-02T00:34:23.876Z,95998.63
2023-04-02T00:36:34.150Z,95996.50
2023-04-02T00:38:40.531Z,96000.22
2023-04-02T00:40:45.638Z,95992.28
2023-04-02T00:42:52.168Z,95997.56
2023-04-02T00:44:58.887Z,95997.56
2023-04-02T00:47:10.407Z,95997.56
2023-04-02T00:49:26.521Z,96000.50
2023-04-02T00:51:37.643Z,95992.59
2023-04-02T00:53:43.542Z,95990.44
2023-04-02T00:55:48.749Z,95994.66
2023-04-02T00:57:55.017Z,96004.13
2023-04-02T01:00:04.029Z,95992.50
2023-04-02T01:02:29.641Z,96003.03
2023-04-02T01:04:38.553Z,96001.97
2023-04-02T01:06:46.728Z,95996.69
2023-04-02T01:09:04.462Z,96003.25
2023-04-02T01:11:20.036Z,96002.19
2023-04-02T01:13:33.976Z,95999.56
2023-04-02T01:15:44.252Z,95998.47
2023-04-02T01:18:06.628Z,96005.31
2023-04-02T01:20:47.220Z,96001.69
2023-04-02T01:22:59.221Z,96004.59
2023-04-02T01:25:04.556Z,96002.25
2023-04-02T01:27:17.484Z,95999.44
2023-04-02T01:29:28.735Z,95996.56
2023-04-02T01:31:34.793Z,95996.09
2023-04-02T01:33:39.986Z,96002.72
2023-04-02T01:35:48.403Z,95998.50
2023-04-02T01:38:03.424Z,96010.91
2023-04-02T01:40:26.074Z,96014.31
2023-04-02T01:42:37.448Z,96010.91
2023-04-02T01:44:49.333Z,96012.97
2023-04-02T01:46:55.716Z,96012.69
2023-04-02T01:49:04.184Z,96011.63
2023-04-02T01:51:11.025Z,96016.88
2023-04-02T01:53:18.898Z,96017.66
2023-04-02T01:55:33.040Z,96023.22
2023-04-02T01:57:38.416Z,96023.69
2023-04-02T01:59:46.595Z,96023.69
2023-04-02T02:01:57.110Z,96023.69
2023-04-02T02:04:04.396Z,96027.44
2023-04-02T02:06:10.210Z,96020.28
2023-04-02T02:08:27.233Z,96025.56
2023-04-02T02:10:38.146Z,96027.44
2023-04-02T02:12:46.087Z,96027.44
2023-04-02T02:14:54.725Z,96027.72
2023-04-02T02:17:13.508Z,96032.47
2023-04-02T02:19:25.771Z,96033.84
2023-04-02T02:21:41.632Z,96038.31
2023-04-02T02:23:46.701Z,96042.53
2023-04-02T02:25:51.698Z,96043.59
2023-04-02T02:28:06.001Z,96042.31
2023-04-02T02:30:19.647Z,96044.75
2023-04-02T02:32:28.381Z,96050.00
2023-04-02T02:34:39.979Z,96040.53
2023-04-02T02:36:54.799Z,96051.38
2023-04-02T02:39:05.339Z,96050.88
2023-04-02T02:41:24.782Z,96048.81
2023-04-02T02:43:31.528Z,96051.44
2023-04-02T02:45:42.226Z,96057.00
2023-04-02T02:47:48.921Z,96057.50
2023-04-02T02:49:59.054Z,96057.50
2023-04-02T02:52:15.618Z,96049.59
2023-04-02T02:54:34.167Z,96056.72
2023-04-02T02:56:44.858Z,96058.28
2023-04-02T02:58:52.257Z,96064.34
2023-04-02T03:01:04.528Z,96069.09
2023-04-02T03:03:15.383Z,96065.19
2023-04-02T03:05:21.947Z,96073.88
2023-04-02T03:07:31.095Z,96070.19
2023-04-02T03:09:44.790Z,96078.38
2023-04-02T03:11:55.761Z,96078.38
2023-04-02T03:14:11.015Z,96075.75
2023-04-02T03:16:24.394Z,96077.84
2023-04-02T03:18:39.036Z,96084.41
2023-04-02T03:20:51.625Z,96086.75
2023-04-02T03:23:03.519Z,96089.41
2023-04-02T03:25:19.274Z,96088.63
2023-04-02T03:27:29.082Z,96096.53
2023-04-02T03:29:37.419Z,96101.00
2023-04-02T03:31:50.131Z,96098.66
2023-04-02T03:34:00.154Z,96094.19
2023-04-02T03:36:21.709Z,96098.66
2023-04-02T03:38:31.638Z,96094.94
2023-04-02T03:40:42.165Z,96101.00
2023-04-02T03:42:52.268Z,96088.63
2023-04-02T03:45:01.620Z,96101.50
2023-04-02T03:47:18.008Z,96093.59
2023-04-02T03:49:32.344Z,96103.34
2023-04-02T03:51:43.205Z,96110.97
2023-04-02T03:53:49.816Z,96104.91
2023-04-02T03:55:56.036Z,96107.28
2023-04-02T03:58:05.220Z,96107.28
2023-04-02T04:00:20.278Z,96109.13
2023-04-02T04:02:44.246Z,96113.13
2023-04-02T04:04:53.227Z,96114.13
2023-04-02T04:07:00.316Z,96118.31
2023-04-02T04:09:12.748Z,96122.22
2023-04-02T04:11:21.857Z,96117.75
2023-04-02T04:13:34.806Z,96126.16
2023-04-02T04:15:44.990Z,96123.50
2023-04-02T04:18:02.733Z,96131.91
2023-04-02T04:20:22.108Z,96134.53
2023-04-02T04:22:34.156Z,96143.25
2023-04-02T04:25:21.249Z,96145.38
2023-04-02T04:27:34.872Z,96146.19
2023-04-02T04:29:49.441Z,96144.81
2023-04-02T04:31:55.957Z,96149.81
2023-04-02T04:34:16.619Z,96165.34
2023-04-02T04:36:32.890Z,96171.38
2023-04-02T04:38:45.292Z,96156.63
2023-04-02T04:40:56.790Z,96167.97
2023-04-02T04:43:09.046Z,96167.19
2023-04-02T04:45:24.540Z,96164.81
2023-04-02T04:47:35.470Z,96174.59
2023-04-02T04:49:48.171Z,96178.28
2023-04-02T04:51:59.154Z,96187.25
2023-04-02T04:54:04.266Z,96182.78
2023-04-02T04:56:19.221Z,96188.34
2023-04-02T04:58:35.082Z,96191.53
2023-04-02T05:00:45.481Z,96190.25
2023-04-02T05:02:56.569Z,96190.53
2023-04-02T05:05:06.914Z,96196.88
2023-04-02T05:07:18.674Z,96199.78
2023-04-02T05:09:30.147Z,96196.97
2023-04-02T05:11:40.076Z,96200.09
2023-04-02T05:13:52.134Z,96201.97
2023-04-02T05:16:07.914Z,96204.88
2023-04-02T05:18:21.806Z,96213.06
2023-04-02T05:20:33.329Z,96212.00
2023-04-02T05:22:45.091Z,96217.00
2023-04-02T05:24:59.210Z,96221.19
2023-04-02T05:27:08.287Z,96225.41
2023-04-02T05:29:18.608Z,96222.75
2023-04-02T05:31:29.047Z,96222.75
2023-04-02T05:33:36.343Z,96230.38
2023-04-02T05:35:50.258Z,96239.34
2023-04-02T05:37:55.521Z,96231.19
2023-04-02T05:40:08.508Z,96235.38
2023-04-02T05:42:21.493Z,96241.72
2023-04-02T05:44:35.435Z,96235.66
2023-04-02T05:46:50.513Z,96242.25
2023-04-02T05:49:01.614Z,96239.91
2023-04-02T05:51:15.064Z,96248.63
2023-04-02T05:53:24.245Z,96248.63
2023-04-02T05:55:37.652Z,96248.63
2023-04-02T05:57:56.849Z,96247.81
2023-04-02T06:00:22.068Z,96251.81
2023-04-02T06:02:35.276Z,96252.59
2023-04-02T06:04:48.583Z,96253.66
2023-04-02T06:07:01.943Z,96257.84
2023-04-02T06:09:14.774Z,96252.88
2023-04-02T06:11:25.942Z,96259.16
2023-04-02T06:13:31.908Z,96262.56
2023-04-02T06:15:40.284Z,96266.78
2023-04-02T06:17:56.943Z,96267.06
2023-04-02T06:20:05.052Z,96270.47
2023-04-02T06:22:23.363Z,96270.47
2023-04-02T06:24:34.169Z,96272.34
2023-04-02T06:26:44.607Z,96276.78
2023-04-02T06:28:58.874Z,96280.78
2023-04-02T06:31:13.264Z,96275.81
2023-04-02T06:33:18.441Z,96284.31
2023-04-02T06:35:24.607Z,96290.06
2023-04-02T06:37:47.484Z,96287.97
2023-04-02T06:39:56.492Z,96299.53
2023-04-02T06:42:05.770Z,96293.16
2023-04-02T06:44:34.542Z,96292.38
2023-04-02T06:47:06.061Z,96300.56
2023-04-02T06:49:26.579Z,96297.16
2023-04-02T06:51:39.818Z,96303.41
2023-04-02T06:53:49.694Z,96305.00
2023-04-02T06:56:03.794Z,96309.72
2023-04-02T06:58:12.274Z,96314.94
2023-04-02T07:00:28.874Z,96317.03
2023-04-02T07:02:38.389Z,96319.09
2023-04-02T07:04:45.880Z,96316.94
2023-04-02T07:06:51.896Z,96321.94
2023-04-02T07:09:00.788Z,96323.25
2023-04-02T07:11:06.082Z,96328.22
2023-04-02T07:13:12.943Z,96327.66
2023-04-02T07:15:19.610Z,96331.88
2023-04-02T07:17:24.833Z,96333.97
2023-04-02T07:19:29.713Z,96332.63
2023-04-02T07:21:36.417Z,96337.06
2023-04-02T07:23:42.145Z,96335.72
2023-04-02T07:25:49.787Z,96343.84
2023-04-02T07:27:56.044Z,96342.97
2023-04-02T07:30:01.166Z,96345.88
2023-04-02T07:32:06.268Z,96349.28
2023-04-02T07:34:11.767Z,96352.44
2023-04-02T07:36:18.457Z,96354.78
2023-04-02T07:38:23.619Z,96359.78
2023-04-02T07:40:28.994Z,96358.16
2023-04-02T07:42:36.489Z,96362.34
2023-04-02T07:44:41.712Z,96355.00
2023-04-02T07:46:46.675Z,96365.47
2023-04-02T07:48:51.630Z,96369.13
2023-04-02T07:50:56.664Z,96378.53
2023-04-02T07:53:01.561Z,96373.50
2023-04-02T07:55:06.930Z,96376.34
2023-04-02T07:57:11.904Z,96380.00
2023-04-02T07:59:20.780Z,96378.13
2023-04-02T08:01:27.501Z,96382.06
2023-04-02T08:03:33.150Z,96390.50
2023-04-02T08:05:38.309Z,96384.41
2023-04-02T08:07:43.557Z,96390.50
2023-04-02T08:09:48.867Z,96392.84
2023-04-02T08:11:53.828Z,96389.66
2023-04-02T08:13:59.357Z,96392.78
2023-04-02T08:16:07.935Z,96392.50
2023-04-02T08:18:13.810Z,96402.19
2023-04-02T08:20:20.224Z,96403.19
2023-04-02T08:22:25.284Z,96406.06
2023-04-02T08:24:30.115Z,96407.63
2023-04-02T08:26:35.054Z,96416.06
2023-04-02T08:28:40.092Z,96419.19
2023-04-02T08:30:45.530Z,96420.78
2023-04-02T08:32:53.127Z,96418.91
2023-04-02T08:34:58.200Z,96430.75
2023-04-02T08:37:03.056Z,96426.25
2023-04-02T08:39:11.276Z,96422.56
2023-04-02T08:41:28.034Z,96430.00
2023-04-02T08:43:58.150Z,96436.81
2023-04-02T08:46:10.567Z,96434.97
2023-04-02T08:48:18.836Z,96437.09
2023-04-02T08:50:31.357Z,96433.69
2023-04-02T08:52:39.106Z,96438.97
2023-04-02T08:54:45.408Z,96448.47
2023-04-02T08:56:55.132Z,96448.47
2023-04-02T08:59:02.303Z,96449.53
2023-04-02T09:01:10.282Z,96449.25
2023-04-02T09:03:22.897Z,96456.69
2023-04-02T09:05:31.510Z,96455.09
2023-04-02T09:07:36.765Z,96447.94
2023-04-02T09:09:41.890Z,96459.31
2023-04-02T09:11:55.289Z,96460.38
2023-04-02T09:14:02.468Z,96456.69
2023-04-02T09:16:12.867Z,96468.00
2023-04-02T09:18:21.771Z,96473.28
2023-04-02T09:20:29.501Z,96469.88
2023-04-02T09:22:36.596Z,96468.00
2023-04-02T09:24:41.473Z,96478.84
2023-04-02T09:26:46.401Z,96480.72
2023-04-02T09:28:52.165Z,96482.56
2023-04-02T09:31:06.884Z,96485.47
2023-04-02T09:33:13.095Z,96479.91
2023-04-02T09:35:39.023Z,96482.25
2023-04-02T09:37:49.256Z,96479.63
2023-04-02T09:48:53.591Z,96488.28
2023-04-02T09:51:14.915Z,96494.06
2023-04-02T09:53:32.435Z,96487.22
2023-04-02T09:55:40.897Z,96502.97
2023-04-02T09:57:46.413Z,96496.66
2023-04-02T09:59:51.401Z,96506.63
2023-04-02T10:02:03.803Z,96496.31
2023-04-02T10:04:29.743Z,96498.09
2023-04-02T10:06:38.340Z,96511.22
2023-04-02T10:08:45.525Z,96509.31
2023-04-02T10:10:53.509Z,96509.75
2023-04-02T10:13:05.622Z,96509.97
2023-04-02T10:15:19.190Z,96512.06
2023-04-02T10:17:28.310Z,96510.91
2023-04-02T10:19:37.968Z,96516.63
2023-04-02T10:21:49.341Z,96518.13
2023-04-02T10:23:54.707Z,96514.84
2023-04-02T10:26:10.210Z,96516.84
2023-04-02T10:28:27.940Z,96517.78
2023-04-02T10:30:42.443Z,96505.28
2023-04-02T10:32:53.351Z,96522.34
2023-04-02T10:35:02.043Z,96520.72
2023-04-02T10:37:31.835Z,96517.47
2023-04-02T10:39:41.840Z,96507.19
2023-04-02T10:41:53.088Z,96522.47
2023-04-02T10:44:24.401Z,96530.69
2023-04-02T10:46:35.909Z,96516.19
2023-04-02T10:48:50.062Z,96529.13
2023-04-02T10:51:03.623Z,96525.41
2023-04-02T10:53:17.517Z,96535.41
2023-04-02T10:55:26.873Z,96527.78
2023-04-02T10:57:40.912Z,96536.19
2023-04-02T10:59:50.077Z,96539.94
2023-04-02T11:01:57.654Z,96543.63
2023-04-02T11:04:06.244Z,96544.41
2023-04-02T11:06:20.978Z,96551.56
2023-04-02T11:08:33.434Z,96545.50
2023-04-02T11:10:43.227Z,96548.94
2023-04-02T11:12:55.917Z,96548.63
2023-04-02T11:15:02.612Z,96557.63
2023-04-02T11:17:07.976Z,96547.06
2023-04-02T11:19:28.575Z,96551.88
2023-04-02T11:21:57.115Z,96548.44
2023-04-02T11:24:07.229Z,96558.72
2023-04-02T11:26:33.096Z,96557.63
2023-04-02T11:28:38.465Z,96555.50
2023-04-02T11:30:52.685Z,96553.16
2023-04-02T11:33:20.861Z,96560.22
2023-04-02T11:35:43.410Z,96562.16
2023-04-02T11:37:52.029Z,96557.56
2023-04-02T11:40:02.293Z,96558.88
2023-04-02T11:42:25.205Z,96556.69
2023-04-02T11:44:30.337Z,96569.63
2023-04-02T11:46:56.191Z,96564.06
2023-04-02T11:49:41.096Z,96566.13
2023-04-02T11:52:02.162Z,96564.47
2023-04-02T11:54:27.312Z,96568.47
2023-04-02T11:56:41.844Z,96572.22
2023-04-02T11:59:06.270Z,96571.41
2023-04-02T12:01:49.951Z,96568.34
2023-04-02T12:04:31.729Z,96578.63
2023-04-02T12:06:52.896Z,96574.16
2023-04-02T12:09:23.066Z,96575.72
2023-04-02T12:11:38.203Z,96573.88
2023-04-02T12:14:01.942Z,96579.06
2023-04-02T12:16:07.485Z,96580.84
2023-04-02T12:18:20.366Z,96579.19
2023-04-02T12:20:34.798Z,96582.06
2023-04-02T12:22:53.950Z,96578.31
2023-04-02T12:25:02.995Z,96582.25
2023-04-02T12:27:15.816Z,96583.84
2023-04-02T12:29:29.132Z,96580.91
2023-04-02T12:31:35.072Z,96578.53
2023-04-02T12:33:41.890Z,96581.47
2023-04-02T12:35:48.117Z,96581.97
2023-04-02T12:37:58.240Z,96586.47
2023-04-02T12:40:07.958Z,96584.41
2023-04-02T12:42:31.697Z,96585.47
2023-04-02T12:44:36.602Z,96582.06
2023-04-02T12:46:42.863Z,96586.69
2023-04-02T12:48:47.848Z,96592.69
2023-04-02T12:50:54.020Z,96592.09
2023-04-02T12:53:02.006Z,96597.38
2023-04-02T12:55:09.095Z,96597.91
2023-04-02T12:57:44.813Z,96597.38
2023-04-02T12:59:49.848Z,96595.84
2023-04-02T13:02:00.057Z,96609.38
2023-04-02T13:04:07.915Z,96597.69
2023-04-02T13:06:27.376Z,96607.78
2023-04-02T13:08:45.945Z,96605.72
2023-04-02T13:10:59.712Z,96606.78
2023-04-02T13:13:12.504Z,96607.06
2023-04-02T13:15:27.255Z,96606.28
2023-04-02T13:17:42.582Z,96618.25
2023-04-02T13:19:48.274Z,96621.19
2023-04-02T13:21:53.691Z,96623.59
2023-04-02T13:24:01.291Z,96625.03
2023-04-02T13:26:19.500Z,96631.78
2023-04-02T13:28:25.763Z,96632.94
2023-04-02T13:30:31.899Z,96633.00
2023-04-02T13:32:38.019Z,96637.28
2023-04-02T13:34:43.818Z,96644.19
2023-04-02T13:36:49.699Z,96648.50
2023-04-02T13:38:55.224Z,96641.94
2023-04-02T13:41:02.594Z,96644.06
2023-04-02T13:43:08.026Z,96646.50
2023-04-02T13:45:23.937Z,96645.28
2023-04-02T13:47:28.810Z,96646.13
2023-04-02T13:49:34.819Z,96647.75
2023-04-02T13:51:46.706Z,96644.59
2023-04-02T13:53:58.161Z,96648.06
2023-04-02T13:56:09.015Z,96653.16
2023-04-02T13:58:14.139Z,96650.25
2023-04-02T14:00:20.922Z,96645.53
2023-04-02T14:02:28.137Z,96652.97
2023-04-02T14:04:38.535Z,96654.31
2023-04-02T14:07:04.701Z,96654.09
2023-04-02T14:09:18.609Z,96656.50
2023-04-02T14:11:38.918Z,96650.47
2023-04-02T14:14:00.604Z,96659.16
2023-04-02T14:16:20.825Z,96659.94
2023-04-02T14:18:42.934Z,96663.66
2023-04-02T14:20:57.105Z,96667.09
2023-04-02T14:23:15.934Z,96672.66
2023-04-02T14:25:29.118Z,96675.56
2023-04-02T14:27:47.783Z,96675.34
2023-04-02T14:30:01.046Z,96680.91
2023-04-02T14:32:11.765Z,96679.63
2023-04-02T14:34:22.591Z,96685.97
2023-04-02T14:36:33.614Z,96687.31
2023-04-02T14:38:47.148Z,96691.81
2023-04-02T14:40:57.362Z,96691.00
2023-04-02T14:43:08.452Z,96686.28
2023-04-02T14:45:20.239Z,96688.44
2023-04-02T14:47:30.755Z,96698.19
2023-04-02T14:49:40.226Z,96697.97
2023-04-02T14:51:50.000Z,96699.31
2023-04-02T14:54:03.100Z,96709.88
2023-04-02T14:56:11.781Z,96704.31
2023-04-02T14:58:25.420Z,96708.81
2023-04-02T15:00:34.945Z,96707.47
2023-04-02T15:06:26.784Z,96711.50
2023-04-02T15:08:35.553Z,96717.31
2023-04-02T15:10:47.142Z,96721.53
2023-04-02T15:12:55.274Z,96719.09
2023-04-02T15:15:10.705Z,96718.59
2023-04-02T15:17:18.092Z,96731.00
2023-04-02T15:19:23.771Z,96737.09
2023-04-02T15:22:01.069Z,96734.75
2023-04-02T15:24:20.191Z,96752.47
2023-04-02T15:26:34.632Z,96746.16
2023-04-02T15:28:45.855Z,96754.63
2023-04-02T15:31:00.065Z,96748.31
2023-04-02T15:33:37.362Z,96757.84
2023-04-02T15:36:00.905Z,96760.47
2023-04-02T15:38:19.900Z,96767.09
2023-04-02T15:40:47.266Z,96769.72
2023-04-02T15:43:04.089Z,96773.97
2023-04-02T15:45:39.437Z,96765.78
2023-04-02T15:48:03.512Z,96778.47
2023-04-02T15:50:25.299Z,96775.09
2023-04-02T15:52:41.121Z,96788.56
2023-04-02T15:55:16.456Z,96790.16
2023-04-02T15:57:56.266Z,96798.09
2023-04-02T16:00:23.541Z,96801.06
2023-04-02T16:03:07.168Z,96797.44
2023-04-02T16:05:24.924Z,96804.09
2023-04-02T16:08:00.352Z,96803.31
2023-04-02T16:10:14.404Z,96807.03
2023-04-02T16:12:21.946Z,96814.41
2023-04-02T16:14:32.841Z,96820.22
2023-04-02T16:16:38.806Z,96826.28
2023-04-02T16:18:55.783Z,96830.53
2023-04-02T16:21:05.673Z,96834.44
2023-04-02T16:23:17.825Z,96841.84
2023-04-02T16:25:28.653Z,96846.84
2023-04-02T16:27:39.397Z,96839.22
2023-04-02T16:30:00.216Z,96841.59
2023-04-02T16:32:12.769Z,96850.03
2023-04-02T16:34:32.389Z,96855.31
2023-04-02T16:36:52.627Z,96859.81
2023-04-02T16:39:05.036Z,96867.44
2023-04-02T16:41:19.691Z,96872.22
2023-04-02T16:43:33.365Z,96875.13
2023-04-02T16:45:47.162Z,96884.84
2023-04-02T16:48:04.853Z,96886.44
2023-04-02T16:50:22.015Z,96886.72
2023-04-02T16:52:45.175Z,96896.75
2023-04-02T16:55:00.338Z,96898.34
2023-04-02T16:57:27.270Z,96901.78
2023-04-02T16:59:44.467Z,96894.91
2023-04-02T17:01:58.417Z,96903.91
2023-04-02T17:04:14.361Z,96901.78
2023-04-02T17:06:27.084Z,96905.75
2023-04-02T17:08:41.967Z,96906.53
2023-04-02T17:10:53.598Z,96913.38
2023-04-02T17:13:11.018Z,96915.78
2023-04-02T17:15:27.979Z,96911.53
2023-04-02T17:17:33.565Z,96919.19
2023-04-02T17:19:38.789Z,96928.41
2023-04-02T17:21:47.292Z,96920.75
2023-04-02T17:23:58.812Z,96933.69
2023-04-02T17:26:09.440Z,96937.38
2023-04-02T17:28:18.188Z,96943.94
2023-04-02T17:30:37.557Z,96942.38
2023-04-02T17:32:43.111Z,96956.56
2023-04-02T17:34:49.008Z,96953.94
2023-04-02T17:37:09.040Z,96959.47
2023-04-02T17:39:26.112Z,96955.78
2023-04-02T17:41:38.523Z,96951.84
2023-04-02T17:43:51.154Z,96964.19
2023-04-02T17:45:59.522Z,96965.53
2023-04-02T17:48:09.340Z,96981.34
2023-04-02T17:50:37.402Z,96992.63
2023-04-02T17:52:48.928Z,96997.13
2023-04-02T17:55:05.709Z,96986.56
2023-04-02T17:57:31.148Z,97000.50
2023-04-02T17:59:58.596Z,96997.31
2023-04-02T18:02:22.385Z,97012.56
2023-04-02T18:04:40.112Z,97015.19
2023-04-02T18:06:58.206Z,97031.75
2023-04-02T18:09:18.282Z,97026.69
2023-04-02T18:11:38.939Z,97028.25
2023-04-02T18:13:48.794Z,97035.31
2023-04-02T18:16:06.894Z,97041.34
2023-04-02T18:18:23.665Z,97044.25
2023-04-02T18:20:35.140Z,97054.25
2023-04-02T18:22:47.993Z,97050.25
2023-04-02T18:25:15.237Z,97062.03
2023-04-02T18:27:34.806Z,97066.47
2023-04-02T18:29:48.368Z,97071.16
2023-04-02T18:32:01.452Z,97070.31
2023-04-02T18:34:32.193Z,97070.53
2023-04-02T18:36:47.848Z,97071.28
2023-04-02T18:39:02.112Z,97079.44
2023-04-02T18:41:21.751Z,97082.56
2023-04-02T18:43:40.571Z,97083.59
2023-04-02T18:45:57.856Z,97098.34
2023-04-02T18:48:11.538Z,97107.50
2023-04-02T18:50:20.680Z,97112.22
2023-04-02T18:52:27.429Z,97109.53
2023-04-02T18:54:36.976Z,97111.09
2023-04-02T18:56:42.358Z,97110.53
2023-04-02T18:58:59.512Z,97125.47
2023-04-02T19:01:08.256Z,97112.03
2023-04-02T19:03:19.485Z,97130.69
2023-04-02T19:05:40.725Z,97124.88
2023-04-02T19:07:47.292Z,97131.19
2023-04-02T19:09:54.675Z,97134.84
2023-04-02T19:11:59.705Z,97140.09
2023-04-02T19:14:13.423Z,97148.78
2023-04-02T19:16:56.267Z,97149.84
2023-04-02T19:19:11.894Z,97158.75
2023-04-02T19:21:27.232Z,97160.03
2023-04-02T19:23:48.568Z,97173.66
2023-04-02T19:26:03.088Z,97177.81
2023-04-02T19:28:14.999Z,97182.53
2023-04-02T19:31:07.526Z,97179.59
2023-04-02T19:33:31.786Z,97180.31
2023-04-02T19:35:45.081Z,97194.50
2023-04-02T19:37:57.101Z,97187.31
2023-04-02T19:40:22.499Z,97197.00
2023-04-02T19:42:42.122Z,97192.78
2023-04-02T19:44:53.990Z,97200.94
2023-04-02T19:47:01.941Z,97194.84
2023-04-02T19:49:11.207Z,97205.38
2023-04-02T19:51:16.042Z,97211.19
2023-04-02T19:55:45.789Z,97211.44
2023-04-02T19:57:52.799Z,97224.00
2023-04-02T19:59:59.851Z,97225.06
2023-04-02T20:02:10.613Z,97217.16
2023-04-02T20:04:16.410Z,97222.44
2023-04-02T20:06:24.089Z,97233.16
2023-04-02T20:08:29.203Z,97235.78
2023-04-02T20:10:34.223Z,97234.75
2023-04-02T20:12:39.343Z,97228.13
2023-04-02T20:14:44.425Z,97227.59
2023-04-02T20:16:49.454Z,97233.38
2023-04-02T20:18:57.107Z,97227.06
2023-04-02T20:21:06.100Z,97238.09
2023-04-02T20:23:11.020Z,97235.72
2023-04-02T20:25:16.279Z,97242.00
2023-04-02T20:27:21.275Z,97241.47
2023-04-02T20:29:28.306Z,97243.06
2023-04-02T20:31:33.545Z,97242.25
2023-04-02T20:33:38.937Z,97254.09
2023-04-02T20:35:46.717Z,97255.38
2023-04-02T20:37:51.790Z,97255.63
2023-04-02T20:39:57.959Z,97259.50
2023-04-02T20:42:03.736Z,97256.34
2023-04-02T20:44:08.612Z,97260.22
2023-04-02T20:46:16.083Z,97263.91
2023-04-02T20:48:21.893Z,97264.63
2023-04-02T20:50:26.908Z,97269.56
2023-04-02T20:52:36.018Z,97272.44
2023-04-02T20:54:41.201Z,97279.50
2023-04-02T20:56:46.118Z,97278.69
2023-04-02T20:58:51.070Z,97279.19
2023-04-02T21:00:55.893Z,97282.59
2023-04-02T21:03:02.747Z,97290.47
2023-04-02T21:05:08.514Z,97298.09
2023-04-02T21:07:13.562Z,97296.28
2023-04-02T21:09:22.123Z,97295.97
2023-04-02T21:11:28.080Z,97300.97
2023-04-02T21:13:33.572Z,97295.97
2023-04-02T21:15:38.654Z,97300.66
2023-04-02T21:17:43.727Z,97298.81
2023-04-02T21:19:48.786Z,97303.28
2023-04-02T21:21:53.742Z,97307.75
2023-04-02T21:24:00.274Z,97307.28
2023-04-02T21:26:09.333Z,97309.81
2023-04-02T21:28:14.419Z,97311.06
2023-04-02T21:30:19.588Z,97314.75
2023-04-02T21:32:24.580Z,97309.50
2023-04-02T21:34:29.497Z,97320.25
2023-04-02T21:36:37.200Z,97324.38
2023-04-02T21:38:45.439Z,97323.78
2023-04-02T21:40:50.427Z,97318.31
2023-04-02T21:42:58.244Z,97322.75
2023-04-02T21:45:03.133Z,97321.97
2023-04-02T21:47:08.160Z,97322.22
2023-04-02T21:49:14.621Z,97322.47
2023-04-02T21:51:21.955Z,97322.47
2023-04-02T21:53:27.314Z,97329.75
2023-04-02T21:55:32.336Z,97328.16
2023-04-02T21:57:37.277Z,97318.72
2023-04-02T21:59:44.745Z,97327.38
2023-04-02T22:01:52.577Z,97327.13
2023-04-02T22:03:58.162Z,97335.00
2023-04-02T22:06:04.970Z,97338.44
2023-04-02T22:08:09.865Z,97337.63
2023-04-02T22:10:14.851Z,97340.72
2023-04-02T22:12:19.705Z,97348.59
2023-04-02T22:14:25.269Z,97345.97
2023-04-02T22:16:34.339Z,97352.81
2023-04-02T22:18:40.315Z,97351.22
2023-04-02T22:20:45.419Z,97347.22
2023-04-02T22:22:50.294Z,97350.91
2023-04-02T22:24:56.421Z,97344.59
2023-04-02T22:27:01.527Z,97359.09
2023-04-02T22:29:07.554Z,97359.31
2023-04-02T22:31:15.390Z,97355.09
2023-04-02T22:33:23.287Z,97359.03
2023-04-02T22:35:28.456Z,97365.06
2023-04-02T22:37:34.202Z,97358.78
2023-04-02T22:39:39.089Z,97356.69
2023-04-02T22:41:43.921Z,97363.56
2023-04-02T22:43:49.684Z,97361.72
2023-04-02T22:45:54.554Z,97359.09
2023-04-02T22:47:59.483Z,97363.56
2023-04-02T22:50:07.681Z,97361.16
2023-04-02T22:52:12.674Z,97365.59
2023-04-02T22:54:17.736Z,97362.97
2023-04-02T22:56:24.753Z,97366.41
2023-04-02T22:58:29.980Z,97361.16
2023-04-02T23:00:35.394Z,97362.75
2023-04-02T23:02:40.692Z,97362.97
2023-04-02T23:04:45.586Z,97370.38
2023-04-02T23:06:53.177Z,97367.75
2023-04-02T23:08:58.106Z,97369.34
2023-04-02T23:11:04.551Z,97371.75
2023-04-02T23:13:09.536Z,97379.63
2023-04-02T23:15:14.571Z,97371.19
2023-04-02T23:17:19.422Z,97371.97
2023-04-02T23:19:24.228Z,97370.38
2023-04-02T23:21:29.753Z,97371.44
2023-04-02T23:23:37.686Z,97364.81
2023-04-02T23:25:43.312Z,97371.66
2023-04-02T23:27:48.165Z,97369.28
2023-04-02T23:29:53.489Z,97369.50
2023-04-02T23:31:58.382Z,97370.06
2023-04-02T23:34:03.442Z,97368.22
2023-04-02T23:36:12.892Z,97377.16
2023-04-02T23:38:17.794Z,97373.72
2023-04-02T23:40:25.262Z,97374.53
2023-04-02T23:42:30.668Z,97369.81
2023-04-02T23:44:35.826Z,97365.38
2023-04-02T23:46:41.111Z,97366.19
2023-04-02T23:48:46.996Z,97368.00
2023-04-02T23:50:52.100Z,97362.19
2023-04-02T23:52:56.945Z,97360.59
2023-04-02T23:55:01.880Z,97362.66
2023-04-02T23:57:09.374Z,97358.44
2023-04-02T23:59:14.556Z,97357.41
